createdAt,value
2023-04-15T00:01:30.277Z,11.41
2023-04-15T00:04:02.854Z,11.66
2023-04-15T00:06:35.311Z,11.31
2023-04-15T00:09:10.158Z,11.21
2023-04-15T00:11:42.573Z,10.81
2023-04-15T00:14:14.747Z,11.61
2023-04-15T00:16:46.998Z,11.62
2023-04-15T00:19:19.285Z,11.54
2023-04-15T00:21:51.648Z,11.63
2023-04-15T00:24:26.820Z,11.71
2023-04-15T00:26:59.039Z,11.60
2023-04-15T00:29:31.270Z,12.39
2023-04-15T00:32:03.572Z,12.65
2023-04-15T00:34:35.971Z,12.56
2023-04-15T00:37:08.223Z,12.66
2023-04-15T00:39:44.117Z,12.14
2023-04-15T00:42:19.160Z,12.36
2023-04-15T00:44:51.334Z,12.58
2023-04-15T00:47:24.426Z,12.44
2023-04-15T00:49:56.839Z,12.19
2023-04-15T00:52:29.282Z,12.11
2023-04-15T00:55:04.906Z,12.39
2023-04-15T00:57:37.756Z,12.41
2023-04-15T01:00:12.237Z,12.15
2023-04-15T01:02:44.839Z,11.00
2023-04-15T01:05:18.756Z,11.16
2023-04-15T01:07:51.966Z,11.17
2023-04-15T01:10:27.506Z,11.01
2023-04-15T01:12:59.766Z,11.24
2023-04-15T01:15:32.327Z,11.32
2023-04-15T01:18:04.801Z,11.69
2023-04-15T01:20:38.366Z,11.54
2023-04-15T01:23:10.907Z,11.84
2023-04-15T01:25:47.857Z,12.48
2023-04-15T01:28:20.800Z,12.22
2023-04-15T01:30:53.064Z,12.91
2023-04-15T01:33:25.427Z,13.34
2023-04-15T01:35:58.088Z,12.80
2023-04-15T01:38:31.591Z,12.76
2023-04-15T01:41:08.276Z,12.52
2023-04-15T01:43:41.427Z,12.59
2023-04-15T01:46:13.646Z,12.23
2023-04-15T01:48:45.956Z,12.57
2023-04-15T01:51:18.191Z,12.43
2023-04-15T01:53:50.569Z,12.61
2023-04-15T01:56:25.650Z,11.89
2023-04-15T01:58:58.191Z,12.42
2023-04-15T02:01:30.756Z,12.26
2023-04-15T02:04:03.186Z,12.24
2023-04-15T02:06:36.535Z,11.95
2023-04-15T02:09:08.726Z,12.04
2023-04-15T02:11:43.963Z,12.11
2023-04-15T02:14:16.436Z,12.38
2023-04-15T02:16:48.672Z,12.21
2023-04-15T02:19:20.927Z,12.24
2023-04-15T02:21:53.300Z,12.45
2023-04-15T02:24:25.603Z,12.01
2023-04-15T02:27:01.327Z,12.04
2023-04-15T02:29:35.599Z,12.37
2023-04-15T02:32:08.431Z,12.47
2023-04-15T02:34:41.443Z,12.31
2023-04-15T02:37:14.366Z,12.59
2023-04-15T02:39:46.655Z,12.31
2023-04-15T02:42:21.820Z,12.16
2023-04-15T02:44:55.044Z,13.24
2023-04-15T02:47:27.349Z,12.89
2023-04-15T02:50:00.773Z,11.86
2023-04-15T02:52:33.244Z,12.49
2023-04-15T02:55:05.419Z,11.86
2023-04-15T02:57:41.289Z,13.09
2023-04-15T03:00:14.685Z,13.29
2023-04-15T03:02:50.104Z,12.55
2023-04-15T03:05:23.735Z,12.17
2023-04-15T03:07:56.338Z,12.54
2023-04-15T03:10:28.708Z,12.37
2023-04-15T03:13:03.992Z,12.56
2023-04-15T03:15:37.449Z,12.56
2023-04-15T03:18:09.659Z,12.43
2023-04-15T03:20:42.037Z,12.10
2023-04-15T03:23:14.357Z,12.06
2023-04-15T03:25:46.747Z,12.34
2023-04-15T03:28:21.624Z,11.68
2023-04-15T03:30:53.810Z,12.90
2023-04-15T03:33:26.551Z,11.96
2023-04-15T03:35:58.830Z,13.23
2023-04-15T03:38:31.630Z,11.95
2023-04-15T03:41:03.852Z,11.97
2023-04-15T03:43:38.881Z,11.76
2023-04-15T03:46:11.299Z,12.18
2023-04-15T03:48:43.454Z,12.20
2023-04-15T03:51:15.772Z,12.08
2023-04-15T03:53:48.119Z,12.26
2023-04-15T03:56:20.343Z,12.83
2023-04-15T03:58:55.198Z,11.68
2023-04-15T04:01:27.739Z,11.79
2023-04-15T04:04:00.121Z,12.53
2023-04-15T04:06:32.645Z,11.94
2023-04-15T04:09:04.886Z,11.96
2023-04-15T04:11:37.751Z,12.06
2023-04-15T04:14:12.570Z,11.87
2023-04-15T04:16:45.022Z,11.91
2023-04-15T04:19:19.787Z,12.42
2023-04-15T04:21:52.115Z,13.19
2023-04-15T04:24:24.327Z,12.65
2023-04-15T04:26:56.718Z,12.64
2023-04-15T04:29:31.537Z,11.71
2023-04-15T04:32:03.856Z,11.66
2023-04-15T04:34:36.298Z,12.48
2023-04-15T04:37:08.590Z,12.84
2023-04-15T04:39:40.805Z,12.19
2023-04-15T04:42:13.099Z,12.47
2023-04-15T04:44:47.948Z,13.11
2023-04-15T04:47:20.157Z,12.29
2023-04-15T04:49:52.323Z,11.29
2023-04-15T04:52:24.708Z,12.01
2023-04-15T04:54:57.046Z,12.16
2023-04-15T04:57:29.291Z,12.82
2023-04-15T05:00:05.216Z,12.62
2023-04-15T05:02:38.245Z,13.00
2023-04-15T05:05:11.906Z,12.36
2023-04-15T05:07:50.774Z,13.36
2023-04-15T05:10:22.961Z,12.65
2023-04-15T05:12:55.592Z,13.51
2023-04-15T05:15:30.683Z,13.31
2023-04-15T05:18:02.935Z,12.86
2023-04-15T05:20:35.177Z,12.58
2023-04-15T05:23:07.729Z,13.16
2023-04-15T05:25:39.986Z,13.81
2023-04-15T05:28:12.630Z,14.05
2023-04-15T05:30:47.841Z,14.49
2023-04-15T05:33:20.350Z,14.83
2023-04-15T05:35:52.575Z,14.64
2023-04-15T05:38:24.791Z,15.14
2023-04-15T05:40:57.165Z,14.67
2023-04-15T05:43:29.832Z,14.26
2023-04-15T05:46:04.695Z,15.48
2023-04-15T05:48:37.018Z,15.22
2023-04-15T05:51:09.964Z,15.11
2023-04-15T05:53:42.447Z,15.09
2023-04-15T05:56:14.591Z,14.11
2023-04-15T05:58:46.831Z,14.41
2023-04-15T06:01:22.416Z,15.16
2023-04-15T06:03:54.933Z,15.10
2023-04-15T06:06:27.485Z,15.16
2023-04-15T06:09:00.037Z,14.98
2023-04-15T06:11:32.566Z,15.29
2023-04-15T06:14:04.851Z,15.44
2023-04-15T06:16:39.671Z,15.16
2023-04-15T06:19:12.610Z,15.51
2023-04-15T06:21:45.237Z,14.62
2023-04-15T06:24:17.991Z,15.17
2023-04-15T06:26:50.282Z,16.21
2023-04-15T06:29:22.608Z,15.82
2023-04-15T06:31:57.805Z,17.42
2023-04-15T06:34:30.160Z,18.31
2023-04-15T06:37:06.813Z,19.04
2023-04-15T06:39:39.608Z,19.67
2023-04-15T06:42:12.246Z,19.50
2023-04-15T06:44:44.592Z,19.94
2023-04-15T06:47:19.974Z,19.17
2023-04-15T06:49:55.166Z,19.38
2023-04-15T06:52:27.545Z,18.04
2023-04-15T06:54:59.863Z,17.43
2023-04-15T06:57:35.294Z,17.81
2023-04-15T07:00:08.817Z,18.00
2023-04-15T07:02:43.774Z,17.44
2023-04-15T07:05:16.121Z,17.28
2023-04-15T07:07:48.844Z,17.56
2023-04-15T07:10:21.123Z,17.29
2023-04-15T07:12:53.744Z,16.84
2023-04-15T07:15:26.324Z,16.90
2023-04-15T07:18:01.308Z,16.82
2023-04-15T07:20:33.607Z,17.61
2023-04-15T07:23:06.071Z,17.46
2023-04-15T07:25:38.349Z,17.48
2023-04-15T07:28:10.826Z,17.56
2023-04-15T07:30:43.245Z,17.19
2023-04-15T07:33:18.623Z,16.79
2023-04-15T07:35:50.819Z,16.75
2023-04-15T07:38:23.437Z,17.11
2023-04-15T07:40:55.854Z,17.33
2023-04-15T07:43:28.285Z,17.99
2023-04-15T07:46:00.798Z,16.50
2023-04-15T07:48:37.025Z,16.29
2023-04-15T07:51:11.017Z,14.98
2023-04-15T07:53:43.275Z,14.53
2023-04-15T07:56:15.555Z,12.99
2023-04-15T07:58:47.828Z,13.99
2023-04-15T08:01:20.199Z,13.02
2023-04-15T08:03:55.900Z,12.01
2023-04-15T08:06:29.109Z,11.05
2023-04-15T08:09:01.688Z,11.31
2023-04-15T08:11:34.328Z,11.49
2023-04-15T08:14:07.117Z,11.44
2023-04-15T08:16:39.929Z,11.25
2023-04-15T08:19:14.718Z,11.48
2023-04-15T08:21:46.970Z,10.96
2023-04-15T08:24:19.815Z,10.21
2023-04-15T08:26:52.064Z,9.41
2023-04-15T08:29:24.271Z,9.27
2023-04-15T08:31:56.821Z,9.16
2023-04-15T08:34:32.157Z,9.14
2023-04-15T08:37:04.385Z,9.20
2023-04-15T08:39:36.619Z,8.85
2023-04-15T08:42:16.092Z,8.31
2023-04-15T08:44:50.213Z,8.36
2023-04-15T08:47:28.527Z,8.16
2023-04-15T08:50:06.882Z,8.52
2023-04-15T08:52:39.459Z,8.43
2023-04-15T08:55:13.222Z,7.77
2023-04-15T08:57:45.390Z,9.01
2023-04-15T09:00:19.567Z,8.67
2023-04-15T09:02:52.638Z,8.81
2023-04-15T09:05:27.557Z,9.23
2023-04-15T09:07:59.888Z,9.20
2023-04-15T09:10:32.643Z,9.29
2023-04-15T09:13:05.493Z,9.39
2023-04-15T09:15:41.899Z,8.81
2023-04-15T09:18:17.084Z,7.87
2023-04-15T09:20:51.850Z,7.76
2023-04-15T09:23:24.016Z,8.44
2023-04-15T09:25:56.251Z,7.85
2023-04-15T09:28:29.543Z,7.02
2023-04-15T09:31:02.858Z,7.31
2023-04-15T09:33:35.356Z,6.76
2023-04-15T09:36:11.061Z,7.04
2023-04-15T09:38:59.689Z,6.89
2023-04-15T09:41:32.112Z,6.76
2023-04-15T09:44:04.304Z,6.91
2023-04-15T09:46:47.294Z,6.84
2023-04-15T09:49:19.786Z,6.95
2023-04-15T09:52:04.536Z,7.25
2023-04-15T09:54:40.434Z,7.49
2023-04-15T09:57:13.796Z,7.24
2023-04-15T09:59:46.062Z,6.01
2023-04-15T10:02:20.001Z,5.21
2023-04-15T10:04:53.916Z,5.12
2023-04-15T10:07:30.949Z,6.02
2023-04-15T10:10:05.556Z,7.19
2023-04-15T10:12:38.097Z,7.72
2023-04-15T10:15:15.714Z,7.46
2023-04-15T10:17:49.600Z,6.33
2023-04-15T10:20:23.421Z,5.05
2023-04-15T10:22:59.028Z,5.01
2023-04-15T10:25:32.567Z,5.17
2023-04-15T10:28:04.892Z,5.17
2023-04-15T10:30:37.929Z,5.46
2023-04-15T10:33:13.173Z,5.57
2023-04-15T10:35:46.553Z,5.78
2023-04-15T10:38:40.262Z,5.59
2023-04-15T10:41:21.852Z,5.91
2023-04-15T10:43:58.024Z,6.46
2023-04-15T10:46:41.211Z,5.45
2023-04-15T10:49:15.578Z,5.07
2023-04-15T10:51:49.953Z,4.79
2023-04-15T10:54:39.737Z,4.94
2023-04-15T10:57:17.859Z,5.05
2023-04-15T11:00:07.804Z,5.36
2023-04-15T11:02:48.663Z,5.39
2023-04-15T11:05:23.584Z,5.25
2023-04-15T11:07:58.896Z,5.64
2023-04-15T11:10:58.080Z,4.69
2023-04-15T11:13:33.281Z,4.62
2023-04-15T11:16:06.592Z,4.36
2023-04-15T11:18:39.498Z,4.34
2023-04-15T11:21:13.104Z,4.61
2023-04-15T11:23:47.552Z,3.79
2023-04-15T11:26:22.391Z,3.69
2023-04-15T11:28:54.795Z,3.81
2023-04-15T11:31:28.118Z,3.76
2023-04-15T11:34:03.082Z,4.01
2023-04-15T11:36:36.009Z,4.79
2023-04-15T11:39:12.097Z,5.53
2023-04-15T11:41:48.864Z,4.78
2023-04-15T11:44:22.343Z,4.36
2023-04-15T11:46:54.546Z,4.32
2023-04-15T11:49:35.138Z,4.42
2023-04-15T11:52:15.385Z,4.66
2023-04-15T11:54:47.946Z,4.33
2023-04-15T11:57:22.882Z,4.67
2023-04-15T11:59:59.342Z,4.59
2023-04-15T12:02:37.175Z,4.09
2023-04-15T12:05:11.986Z,4.14
2023-04-15T12:08:02.280Z,4.06
2023-04-15T12:10:36.470Z,4.46
2023-04-15T12:13:14.466Z,4.34
2023-04-15T12:15:46.735Z,3.59
2023-04-15T12:18:22.303Z,3.37
2023-04-15T12:20:54.819Z,3.29
2023-04-15T12:23:26.987Z,3.16
2023-04-15T12:25:59.135Z,2.77
2023-04-15T12:28:35.186Z,3.06
2023-04-15T12:31:14.164Z,2.94
2023-04-15T12:33:46.358Z,3.31
2023-04-15T12:36:18.539Z,3.30
2023-04-15T12:38:50.713Z,3.24
2023-04-15T12:41:24.633Z,3.38
2023-04-15T12:43:59.476Z,3.48
2023-04-15T12:46:31.670Z,3.58
2023-04-15T12:49:03.963Z,3.44
2023-04-15T12:51:36.303Z,3.21
2023-04-15T12:54:08.711Z,3.34
2023-04-15T12:56:40.879Z,3.34
2023-04-15T12:59:16.246Z,3.21
2023-04-15T13:01:49.748Z,2.93
2023-04-15T13:04:23.007Z,2.59
2023-04-15T13:06:56.378Z,2.66
2023-04-15T13:09:28.530Z,2.33
2023-04-15T13:12:00.725Z,2.52
2023-04-15T13:14:35.695Z,2.73
2023-04-15T13:17:10.371Z,2.97
2023-04-15T13:19:43.575Z,3.10
2023-04-15T13:22:15.864Z,3.03
2023-04-15T13:24:48.114Z,2.81
2023-04-15T13:27:20.347Z,2.93
2023-04-15T13:29:55.073Z,2.90
2023-04-15T13:32:27.303Z,2.86
2023-04-15T13:34:59.723Z,2.59
2023-04-15T13:37:33.364Z,2.79
2023-04-15T13:40:07.368Z,2.74
2023-04-15T13:42:39.610Z,2.92
2023-04-15T13:45:15.542Z,2.86
2023-04-15T13:47:48.004Z,2.58
2023-04-15T13:50:20.169Z,2.61
2023-04-15T13:52:52.371Z,2.55
2023-04-15T13:55:26.376Z,2.51
2023-04-15T13:58:00.238Z,2.31
2023-04-15T14:00:35.157Z,2.12
2023-04-15T14:03:07.786Z,2.14
2023-04-15T14:05:40.489Z,2.06
2023-04-15T14:08:12.751Z,1.99
2023-04-15T14:10:48.587Z,2.01
2023-04-15T14:13:20.923Z,2.07
2023-04-15T14:15:55.733Z,2.06
2023-04-15T14:18:28.032Z,2.24
2023-04-15T14:21:00.247Z,2.12
2023-04-15T14:23:32.458Z,2.37
2023-04-15T14:26:04.778Z,2.56
2023-04-15T14:28:38.587Z,2.76
2023-04-15T14:31:14.461Z,2.95
2023-04-15T14:33:46.885Z,2.96
2023-04-15T14:36:19.247Z,3.03
2023-04-15T14:38:51.505Z,2.89
2023-04-15T14:41:23.780Z,2.70
2023-04-15T14:43:56.824Z,2.68
2023-04-15T14:46:31.825Z,2.49
2023-04-15T14:49:04.384Z,2.26
2023-04-15T14:51:36.810Z,2.15
2023-04-15T14:54:09.008Z,2.26
2023-04-15T14:56:41.205Z,1.91
2023-04-15T14:59:13.381Z,2.03
2023-04-15T15:01:48.307Z,1.91
2023-04-15T15:04:20.770Z,2.09
2023-04-15T15:06:53.029Z,2.01
2023-04-15T15:09:26.088Z,2.00
2023-04-15T15:11:58.554Z,1.78
2023-04-15T15:14:31.352Z,1.81
2023-04-15T15:17:06.265Z,1.87
2023-04-15T15:19:38.529Z,1.94
2023-04-15T15:22:10.733Z,1.93
2023-04-15T15:24:42.938Z,1.95
2023-04-15T15:27:15.293Z,1.80
2023-04-15T15:29:47.574Z,2.09
2023-04-15T15:32:22.371Z,2.07
2023-04-15T15:34:54.683Z,2.20
2023-04-15T15:37:26.865Z,1.91
2023-04-15T15:39:59.274Z,1.86
2023-04-15T15:42:34.791Z,2.09
2023-04-15T15:45:07.803Z,2.03
2023-04-15T15:47:43.071Z,2.01
2023-04-15T15:50:16.890Z,2.06
2023-04-15T15:52:49.069Z,2.30
2023-04-15T15:55:21.419Z,2.42
2023-04-15T15:57:53.584Z,2.58
2023-04-15T16:00:25.797Z,2.61
2023-04-15T16:03:07.403Z,2.62
2023-04-15T16:05:40.359Z,2.63
2023-04-15T16:08:12.751Z,2.30
2023-04-15T16:10:45.876Z,2.66
2023-04-15T16:13:18.058Z,2.34
2023-04-15T16:15:50.242Z,2.59
2023-04-15T16:18:25.090Z,2.66
2023-04-15T16:20:57.280Z,2.52
2023-04-15T16:23:29.576Z,2.30
2023-04-15T16:26:01.753Z,2.16
2023-04-15T16:28:33.954Z,2.09
2023-04-15T16:31:06.170Z,2.56
2023-04-15T16:33:40.945Z,2.41
2023-04-15T16:36:13.193Z,2.29
2023-04-15T16:38:45.467Z,2.59
2023-04-15T16:41:18.799Z,2.52
2023-04-15T16:43:50.997Z,2.16
2023-04-15T16:46:23.242Z,2.21
2023-04-15T16:48:57.981Z,2.51
2023-04-15T16:51:31.681Z,2.67
2023-04-15T16:54:03.939Z,1.96
2023-04-15T16:56:36.758Z,2.35
2023-04-15T16:59:08.975Z,2.54
2023-04-15T17:01:41.616Z,2.38
2023-04-15T17:04:16.582Z,2.40
2023-04-15T17:06:49.159Z,2.36
2023-04-15T17:09:21.346Z,2.54
2023-04-15T17:11:53.614Z,3.23
2023-04-15T17:14:25.750Z,2.10
2023-04-15T17:16:57.919Z,2.17
2023-04-15T17:19:32.996Z,2.34
2023-04-15T17:22:05.368Z,2.66
2023-04-15T17:24:37.904Z,2.45
2023-04-15T17:27:10.104Z,2.74
2023-04-15T17:29:42.207Z,2.51
2023-04-15T17:32:14.631Z,2.37
2023-04-15T17:34:51.307Z,2.86
2023-04-15T17:37:23.887Z,2.69
2023-04-15T17:39:56.130Z,3.07
2023-04-15T17:42:28.309Z,2.88
2023-04-15T17:45:00.475Z,3.46
2023-04-15T17:47:32.703Z,3.16
2023-04-15T17:50:07.886Z,2.72
2023-04-15T17:52:40.103Z,3.12
2023-04-15T17:55:13.447Z,3.38
2023-04-15T17:57:45.649Z,3.43
2023-04-15T18:00:20.790Z,3.31
2023-04-15T18:02:53.222Z,3.20
2023-04-15T18:05:28.221Z,3.14
2023-04-15T18:08:00.490Z,3.54
2023-04-15T18:10:32.771Z,3.11
2023-04-15T18:13:05.335Z,2.71
2023-04-15T18:15:38.837Z,3.04
2023-04-15T18:18:11.012Z,2.79
2023-04-15T18:20:45.776Z,2.90
2023-04-15T18:23:18.114Z,2.74
2023-04-15T18:25:50.526Z,2.52
2023-04-15T18:28:23.102Z,2.54
2023-04-15T18:30:56.805Z,2.45
2023-04-15T18:33:29.023Z,2.64
2023-04-15T18:36:03.917Z,2.74
2023-04-15T18:38:36.232Z,2.41
2023-04-15T18:41:10.091Z,2.36
2023-04-15T18:43:42.468Z,2.23
2023-04-15T18:46:14.994Z,1.86
2023-04-15T18:48:47.351Z,1.95
2023-04-15T18:51:22.252Z,2.09
2023-04-15T18:53:54.717Z,1.90
2023-04-15T18:56:26.976Z,1.77
2023-04-15T18:59:28.444Z,2.11
2023-04-15T19:01:51.981Z,1.89
2023-04-15T19:04:25.021Z,2.31
2023-04-15T19:07:00.862Z,2.04
2023-04-15T19:09:34.167Z,2.14
2023-04-15T19:12:06.473Z,1.88
2023-04-15T19:14:38.617Z,2.01
2023-04-15T19:17:10.804Z,2.21
2023-04-15T19:19:43.085Z,2.29
2023-04-15T19:22:19.614Z,2.25
2023-04-15T19:24:51.973Z,2.25
2023-04-15T19:27:24.312Z,2.23
2023-04-15T19:29:56.447Z,2.32
2023-04-15T19:32:28.873Z,2.14
2023-04-15T19:35:01.049Z,2.31
2023-04-15T19:37:35.862Z,2.35
2023-04-15T19:40:08.811Z,2.64
2023-04-15T19:42:41.035Z,2.26
2023-04-15T19:45:13.881Z,2.29
2023-04-15T19:47:46.236Z,2.37
2023-04-15T19:50:21.442Z,2.42
2023-04-15T19:52:56.469Z,2.49
2023-04-15T19:55:28.641Z,2.56
2023-04-15T19:58:00.795Z,2.31
2023-04-15T20:00:33.009Z,2.44
2023-04-15T20:03:05.331Z,2.35
2023-04-15T20:05:37.746Z,2.63
2023-04-15T20:08:12.543Z,2.66
2023-04-15T20:10:44.929Z,2.75
2023-04-15T20:13:17.291Z,2.48
2023-04-15T20:15:49.771Z,2.53
2023-04-15T20:18:21.949Z,2.73
2023-04-15T20:20:54.250Z,2.68
2023-04-15T20:23:29.518Z,2.57
2023-04-15T20:26:01.721Z,2.56
2023-04-15T20:28:33.922Z,2.92
2023-04-15T20:31:07.476Z,2.76
2023-04-15T20:33:39.742Z,2.69
2023-04-15T20:36:11.917Z,2.55
2023-04-15T20:38:46.679Z,2.37
2023-04-15T20:41:19.507Z,2.48
2023-04-15T20:43:51.689Z,2.66
2023-04-15T20:46:26.633Z,2.50
2023-04-15T20:48:59.727Z,2.81
2023-04-15T20:51:37.429Z,2.71
2023-04-15T20:54:12.268Z,3.08
2023-04-15T20:56:44.403Z,3.04
2023-04-15T20:59:16.622Z,2.95
2023-04-15T21:01:49.385Z,3.32
2023-04-15T21:04:22.224Z,3.09
2023-04-15T21:06:54.814Z,3.01
2023-04-15T21:09:29.618Z,2.97
2023-04-15T21:12:02.490Z,2.71
2023-04-15T21:14:35.128Z,2.92
2023-04-15T21:17:10.869Z,3.03
2023-04-15T21:19:43.568Z,3.08
2023-04-15T21:22:15.783Z,2.99
2023-04-15T21:24:50.574Z,2.62
2023-04-15T21:27:22.917Z,2.69
2023-04-15T21:29:55.131Z,2.67
2023-04-15T21:32:27.532Z,2.65
2023-04-15T21:34:59.729Z,2.66
2023-04-15T21:37:31.982Z,2.71
2023-04-15T21:40:06.962Z,2.64
2023-04-15T21:42:39.414Z,2.50
2023-04-15T21:45:12.553Z,2.47
2023-04-15T21:47:57.050Z,2.28
2023-04-15T21:50:36.804Z,2.39
2023-04-15T21:53:11.621Z,2.29
2023-04-15T21:55:46.495Z,2.34
2023-04-15T21:58:18.685Z,2.46
2023-04-15T22:00:51.311Z,2.61
2023-04-15T22:03:23.806Z,2.47
2023-04-15T22:05:56.207Z,2.68
2023-04-15T22:08:28.567Z,2.64
2023-04-15T22:11:03.753Z,2.35
2023-04-15T22:13:35.998Z,2.36
2023-04-15T22:16:08.225Z,2.40
2023-04-15T22:18:40.403Z,2.44
2023-04-15T22:21:12.536Z,2.32
2023-04-15T22:23:44.998Z,2.67
2023-04-15T22:26:19.773Z,2.43
2023-04-15T22:28:51.930Z,2.44
2023-04-15T22:31:24.176Z,2.59
2023-04-15T22:33:56.384Z,2.89
2023-04-15T22:36:28.792Z,2.54
2023-04-15T22:39:00.851Z,2.69
2023-04-15T22:41:35.595Z,2.85
2023-04-15T22:44:07.789Z,2.84
2023-04-15T22:46:40.134Z,2.93
2023-04-15T22:49:13.695Z,3.22
2023-04-15T22:51:47.443Z,3.73
2023-04-15T22:54:19.672Z,3.98
2023-04-15T22:56:54.498Z,4.95
2023-04-15T22:59:26.781Z,4.90
2023-04-15T23:01:59.525Z,4.54
2023-04-15T23:04:32.114Z,4.26
2023-04-15T23:07:04.435Z,3.81
2023-04-15T23:09:36.672Z,3.44
2023-04-15T23:12:11.885Z,3.77
2023-04-15T23:14:44.322Z,3.74
2023-04-15T23:17:16.532Z,3.55
2023-04-15T23:19:48.682Z,3.58
2023-04-15T23:22:22.866Z,3.41
2023-04-15T23:24:55.030Z,3.33
2023-04-15T23:27:29.845Z,3.29
2023-04-15T23:30:02.089Z,3.42
2023-04-15T23:32:34.421Z,3.44
2023-04-15T23:35:06.741Z,3.21
2023-04-15T23:37:38.915Z,3.60
2023-04-15T23:40:12.645Z,3.77
2023-04-15T23:42:47.580Z,3.66
2023-04-15T23:45:19.807Z,3.45
2023-04-15T23:47:52.092Z,3.54
2023-04-15T23:50:24.318Z,4.01
2023-04-15T23:52:56.523Z,3.79
2023-04-15T23:55:28.723Z,3.57
2023-04-15T23:58:03.523Z,3.79
